Red Devil, AK (99656)

3:08 PM AKDT on July 25, 2014 (GMT -0800)
Sleetmute (PASL) Elev 177 ft | 61.72 °N, 157.15 °W | Change Station

Current weather conditions updated 32 minutes ago

Scattered Clouds
Scattered Clouds
55 °F
Feels Like 55 °F
N
5
Wind Variable Wind from NNW

Today is forecast to be Cooler than yesterday.

Today
High -- | Low -- °F
--% Chance of Precip.
Yesterday
High -- | Low -- °F
Precip. -- in
5:39 AM 11:29 PM
Waning Crescent, 1% visible
Pressure 30.04 in
Visibility 10.0 miles
Clouds Scattered Clouds 4500 ft
Dew Point 30 °F
Humidity 38%
Rainfall 0.00 in
Snow Depth Not available.
UV 5 out of 12
Pollen Not available.
Air Quality Not available.
Flu Activity Not available.
METAR PASL 252236Z AUTO 33004KT 10SM SCT045 13/M01 A3004 RMK AO1

More Conditions Fewer Conditions

Pressure 30.04 in
Visibility 10.0 miles
Clouds Scattered Clouds 4500 ft
Dew Point 30 °F
Humidity 38%
Rainfall 0.00 in
Snow Depth Not available.
UV 5 out of 12
Pollen Not available.
Air Quality Not available.
Flu Activity Not available.
METAR PASL 252236Z AUTO 33004KT 10SM SCT045 13/M01 A3004 RMK AO1

More Conditions Fewer Conditions

10-Day Weather Forecast

Almanac

Astronomy

Jul. 25, 2014 Rise Set
Actual Time 5:39 AM AKDT 11:29 PM AKDT
Civil Twilight 4:20 AM AKDT 12:47 AM AKDT
Nautical Twilight Sun does not rise Sun does not rise
Astronomical Twilight Sun does not rise Sun does not rise
Moon 5:06 AM AKDT 10:09 PM AKDT
Length of Visible Light 20h 26m
Length of Day
17h 50m
Tomorrow will be 5m 9s shorter.
Waning Crescent, 1% of the Moon is Illuminated
Today
Waning Crescent
Jul 26
New
Aug 3
First Quarter
Aug 10
Full
Aug 17
Last Quarter

Today's Extremes

State Highs State Lows

Community

WunderPhotos

Upload Photos

1,737,436 photos uploaded!

Nearby

Snow Depth

Station Depth Elevation
Mcneil Canyon 1 in 1320 ft
Susitna Valley High 2 in 375 ft
Point Mackenzie 2 in 200 ft
Port Graham 0 in 300 ft
MF Bradley River 127 in 2300 ft

Earthquake Activity

City Distance Mag. Time & Date
No recent earthquake activity has been reported nearby.
Minimum magnitude displayed is 2.5.

Coastal Water Temperatures

Place Temperature
No Stations Reporting

Nearby Weather Stations

There are no personal weather stations in this area.